Time;durP1;ratioP1;P1;durP2;ratioP2;P2;SDS_P1;SDS_P2;PMS_P1;PMS_P2;Temp;Humidity;BMP_temperature;BMP_pressure;BME280_temperature;BME280_humidity;BME280_pressure;Samples;Min_cycle;Max_cycle;Signal;HPM_P1;HPM_P2
2021/07/30 00:01:56;;;;;;;8.40;3.85;;;;;;;;;;5000307;28;20113;-76
2021/07/30 00:04:22;;;;;;;13.52;5.03;;;;;;;;;;4986569;28;20560;-76
2021/07/30 00:06:47;;;;;;;9.00;4.25;;;;;;;;;;5003425;28;20053;-76
2021/07/30 00:09:14;;;;;;;11.23;4.63;;;;;;;;;;4983188;28;20027;-76
2021/07/30 00:11:40;;;;;;;15.00;5.20;;;;;;;;;;4991127;28;20027;-76
2021/07/30 00:14:07;;;;;;;14.65;6.03;;;;;;;;;;4985635;28;20026;-76
2021/07/30 00:16:32;;;;;;;14.02;4.68;;;;;;;;;;4984944;28;20034;-76
2021/07/30 00:18:58;;;;;;;13.68;4.78;;;;;;;;;;4999743;28;20042;-76
2021/07/30 00:21:23;;;;;;;14.25;4.68;;;;;;;;;;4966320;28;20714;-76
2021/07/30 00:23:48;;;;;;;11.75;4.50;;;;;;;;;;4985441;28;20046;-75
2021/07/30 00:26:14;;;;;;;11.25;4.22;;;;;;;;;;4982321;28;20036;-76
2021/07/30 00:28:40;;;;;;;8.00;3.65;;;;;;;;;;4980931;28;20026;-76
2021/07/30 00:31:05;;;;;;;16.27;3.60;;;;;;;;;;5001724;28;20636;-76
2021/07/30 00:33:31;;;;;;;10.38;3.58;;;;;;;;;;4990926;28;20041;-76
2021/07/30 00:35:56;;;;;;;8.65;3.60;;;;;;;;;;4989661;28;20540;-76
2021/07/30 00:38:22;;;;;;;7.55;3.65;;;;;;;;;;4983456;28;20117;-76
2021/07/30 00:40:48;;;;;;;19.50;3.80;;;;;;;;;;4985103;28;20050;-77
2021/07/30 00:43:13;;;;;;;12.18;3.63;;;;;;;;;;4968636;28;20145;-75
2021/07/30 00:45:39;;;;;;;10.68;3.90;;;;;;;;;;4988413;28;20065;-76
2021/07/30 00:48:06;;;;;;;9.75;3.10;;;;;;;;;;4987616;28;20029;-76
2021/07/30 00:50:32;;;;;;;9.13;3.50;;;;;;;;;;4989162;28;20029;-76
2021/07/30 00:52:57;;;;;;;8.40;3.28;;;;;;;;;;4994512;28;20085;-76
2021/07/30 00:55:24;;;;;;;11.85;3.35;;;;;;;;;;4981733;28;20523;-76
2021/07/30 00:57:52;;;;;;;7.25;3.45;;;;;;;;;;4985069;28;20034;-76
2021/07/30 01:00:19;;;;;;;15.57;3.72;;;;;;;;;;4992559;28;20034;-76
2021/07/30 01:02:45;;;;;;;9.93;4.00;;;;;;;;;;4992356;28;20029;-76
2021/07/30 01:05:12;;;;;;;8.25;3.00;;;;;;;;;;4986248;28;20034;-76
2021/07/30 01:07:38;;;;;;;10.05;2.72;;;;;;;;;;4983196;28;20027;-76
2021/07/30 01:10:05;;;;;;;7.47;3.22;;;;;;;;;;4989849;28;20107;-76
2021/07/30 01:12:30;;;;;;;6.80;2.53;;;;;;;;;;4976022;28;20035;-76
2021/07/30 01:14:57;;;;;;;6.03;3.25;;;;;;;;;;4989378;28;20041;-76
2021/07/30 01:17:25;;;;;;;5.57;2.40;;;;;;;;;;4987577;28;20088;-76
2021/07/30 01:19:51;;;;;;;10.68;2.63;;;;;;;;;;4986025;28;20034;-76
2021/07/30 01:22:23;;;;;;;7.18;2.80;;;;;;;;;;4979168;28;20035;-76
2021/07/30 01:24:53;;;;;;;11.65;2.67;;;;;;;;;;4988638;28;20041;-76
2021/07/30 01:27:19;;;;;;;7.15;2.35;;;;;;;;;;4983515;28;20452;-76
2021/07/30 01:29:44;;;;;;;8.52;3.15;;;;;;;;;;4988561;28;20512;-75
2021/07/30 01:32:10;;;;;;;8.20;2.50;;;;;;;;;;4991128;28;20026;-76
2021/07/30 01:34:35;;;;;;;6.07;2.72;;;;;;;;;;4973068;28;20062;-76
2021/07/30 01:37:01;;;;;;;5.35;2.50;;;;;;;;;;5002462;28;20025;-76
2021/07/30 01:39:26;;;;;;;6.00;2.67;;;;;;;;;;4987750;28;20104;-76
2021/07/30 01:41:51;;;;;;;6.03;2.83;;;;;;;;;;4984942;28;20052;-76
2021/07/30 01:44:17;;;;;;;6.35;2.78;;;;;;;;;;4989394;28;20121;-76
2021/07/30 01:46:43;;;;;;;15.70;3.03;;;;;;;;;;4995064;28;20058;-76
2021/07/30 01:49:09;;;;;;;6.85;2.53;;;;;;;;;;4975247;28;20468;-76
2021/07/30 01:51:34;;;;;;;4.85;3.20;;;;;;;;;;4962543;28;20029;-76
2021/07/30 01:53:59;;;;;;;7.15;3.47;;;;;;;;;;4988199;28;20043;-77
2021/07/30 01:56:25;;;;;;;10.98;3.28;;;;;;;;;;4992082;28;20448;-76
2021/07/30 01:58:50;;;;;;;8.30;4.25;;;;;;;;;;4984350;28;20047;-76
2021/07/30 02:01:16;;;;;;;11.23;5.07;;;;;;;;;;4994144;28;20046;-76
2021/07/30 02:03:41;;;;;;;13.57;5.72;;;;;;;;;;4992623;28;20413;-76
2021/07/30 02:06:08;;;;;;;11.40;5.50;;;;;;;;;;4977426;28;20035;-77
2021/07/30 02:08:34;;;;;;;10.52;4.97;;;;;;;;;;4969164;28;20039;-76
2021/07/30 02:11:01;;;;;;;10.75;5.47;;;;;;;;;;4988004;28;20032;-77
2021/07/30 02:16:10;;;;;;;12.52;5.50;;;;;;;;;;4979564;28;20121;-76
2021/07/30 02:18:35;;;;;;;10.32;5.55;;;;;;;;;;4958105;28;20117;-76
2021/07/30 02:21:01;;;;;;;8.85;4.93;;;;;;;;;;4997766;28;20672;-77
2021/07/30 02:23:26;;;;;;;15.00;5.35;;;;;;;;;;4986625;28;20117;-77
2021/07/30 02:25:52;;;;;;;11.98;5.20;;;;;;;;;;5006535;28;20042;-77
2021/07/30 02:28:17;;;;;;;14.02;5.47;;;;;;;;;;4989283;28;20106;-77
2021/07/30 02:30:43;;;;;;;17.45;5.82;;;;;;;;;;4995384;28;20030;-76
2021/07/30 02:33:08;;;;;;;9.93;5.30;;;;;;;;;;4990786;28;20029;-76
2021/07/30 02:35:34;;;;;;;11.10;5.63;;;;;;;;;;4996338;28;20041;-76
2021/07/30 02:37:59;;;;;;;15.80;5.28;;;;;;;;;;4987930;28;20121;-76
2021/07/30 02:40:25;;;;;;;15.75;6.38;;;;;;;;;;5004203;28;20061;-77
2021/07/30 02:42:50;;;;;;;13.27;6.63;;;;;;;;;;4992697;28;20050;-77
2021/07/30 02:45:15;;;;;;;15.45;7.38;;;;;;;;;;4996746;28;20029;-76
2021/07/30 02:47:41;;;;;;;15.80;7.10;;;;;;;;;;4975508;28;20507;-77
2021/07/30 02:50:07;;;;;;;14.40;7.30;;;;;;;;;;4994373;28;20046;-76
2021/07/30 02:52:32;;;;;;;19.98;7.28;;;;;;;;;;4994397;28;20036;-76
2021/07/30 02:54:58;;;;;;;13.90;7.75;;;;;;;;;;4990376;28;20113;-76
2021/07/30 02:57:23;;;;;;;18.70;8.10;;;;;;;;;;5012486;28;20712;-77
2021/07/30 02:59:49;;;;;;;16.90;7.40;;;;;;;;;;4989993;28;20039;-77
2021/07/30 03:02:14;;;;;;;33.67;8.90;;;;;;;;;;4958867;28;20035;-77
2021/07/30 03:04:40;;;;;;;24.40;8.13;;;;;;;;;;4992511;28;20026;-77
2021/07/30 03:07:05;;;;;;;14.77;7.75;;;;;;;;;;4959277;28;20038;-76
2021/07/30 03:09:31;;;;;;;19.55;8.85;;;;;;;;;;4988430;28;20062;-77
2021/07/30 03:11:56;;;;;;;14.23;7.97;;;;;;;;;;4993989;28;20505;-76
2021/07/30 03:14:22;;;;;;;14.90;8.10;;;;;;;;;;5004237;28;20115;-76
2021/07/30 03:16:47;;;;;;;18.10;9.02;;;;;;;;;;4993783;28;20504;-76
2021/07/30 03:19:13;;;;;;;17.52;8.40;;;;;;;;;;4987832;28;20030;-76
2021/07/30 03:21:39;;;;;;;19.98;8.80;;;;;;;;;;4975963;28;20493;-76
2021/07/30 03:24:05;;;;;;;17.17;7.40;;;;;;;;;;4993765;28;20053;-76
2021/07/30 03:26:32;;;;;;;18.55;8.45;;;;;;;;;;4988892;28;20394;-77
2021/07/30 03:28:57;;;;;;;15.80;7.97;;;;;;;;;;4993322;28;20037;-76
2021/07/30 03:31:23;;;;;;;17.98;8.60;;;;;;;;;;5012627;28;20027;-76
2021/07/30 03:33:48;;;;;;;14.68;7.85;;;;;;;;;;4988709;28;20042;-76
2021/07/30 03:36:14;;;;;;;20.60;8.98;;;;;;;;;;4991298;28;20030;-76
2021/07/30 03:38:39;;;;;;;15.43;8.60;;;;;;;;;;4990889;28;20108;-76
2021/07/30 03:41:05;;;;;;;15.27;8.43;;;;;;;;;;4998014;28;20496;-76
2021/07/30 03:43:32;;;;;;;17.92;8.98;;;;;;;;;;4977827;28;20045;-77
2021/07/30 03:45:57;;;;;;;13.38;8.73;;;;;;;;;;4990116;28;20065;-76
2021/07/30 03:48:23;;;;;;;16.42;9.10;;;;;;;;;;4988410;28;20029;-76
2021/07/30 03:50:48;;;;;;;19.40;8.82;;;;;;;;;;4998986;28;20053;-76
2021/07/30 03:53:13;;;;;;;18.65;8.85;;;;;;;;;;4999379;28;20031;-75
2021/07/30 03:55:39;;;;;;;19.42;9.35;;;;;;;;;;4998153;28;20030;-77
2021/07/30 03:58:04;;;;;;;16.98;8.45;;;;;;;;;;4984903;28;20157;-76
2021/07/30 04:00:30;;;;;;;19.58;8.27;;;;;;;;;;4973076;28;20041;-76
2021/07/30 04:02:55;;;;;;;15.50;8.90;;;;;;;;;;4986900;28;20081;-76
2021/07/30 04:05:21;;;;;;;16.92;8.93;;;;;;;;;;4998896;28;20038;-77
2021/07/30 04:07:46;;;;;;;20.13;8.90;;;;;;;;;;4991922;28;20034;-75
2021/07/30 04:10:12;;;;;;;29.33;8.98;;;;;;;;;;4978501;28;20466;-76
2021/07/30 04:12:37;;;;;;;14.95;7.93;;;;;;;;;;4970124;28;20026;-77
2021/07/30 04:15:03;;;;;;;17.73;8.88;;;;;;;;;;4986988;28;20035;-76
2021/07/30 04:17:29;;;;;;;21.80;9.25;;;;;;;;;;4978667;28;20050;-77
2021/07/30 04:19:54;;;;;;;17.13;8.48;;;;;;;;;;4988791;28;20030;-77
2021/07/30 04:22:19;;;;;;;16.48;8.70;;;;;;;;;;5012967;28;20034;-78
2021/07/30 04:24:45;;;;;;;18.08;7.78;;;;;;;;;;4993175;28;20085;-78
2021/07/30 04:27:10;;;;;;;13.07;7.72;;;;;;;;;;4977910;28;20600;-76
2021/07/30 04:29:38;;;;;;;16.55;8.85;;;;;;;;;;4993275;28;20010;-77
2021/07/30 04:32:04;;;;;;;15.15;8.93;;;;;;;;;;4992178;28;20116;-75
2021/07/30 04:34:29;;;;;;;13.38;8.52;;;;;;;;;;4983408;28;20033;-76
2021/07/30 04:36:55;;;;;;;13.15;8.00;;;;;;;;;;4991314;28;20468;-76
2021/07/30 04:39:20;;;;;;;14.82;9.10;;;;;;;;;;4977350;28;20046;-77
2021/07/30 04:41:46;;;;;;;15.98;9.32;;;;;;;;;;4986142;28;20046;-76
2021/07/30 04:44:11;;;;;;;15.73;9.55;;;;;;;;;;4998071;28;20037;-77
2021/07/30 04:46:37;;;;;;;18.67;9.43;;;;;;;;;;4991162;28;20515;-77
2021/07/30 04:49:02;;;;;;;19.95;10.73;;;;;;;;;;4999352;28;20053;-76
2021/07/30 04:51:28;;;;;;;16.20;9.55;;;;;;;;;;4985031;28;20026;-77
2021/07/30 04:53:53;;;;;;;15.13;9.23;;;;;;;;;;4987833;28;20043;-77
2021/07/30 04:56:19;;;;;;;16.17;9.32;;;;;;;;;;4995065;28;20038;-78
2021/07/30 04:58:46;;;;;;;18.58;10.15;;;;;;;;;;5005790;28;20041;-77
2021/07/30 05:01:11;;;;;;;23.85;10.85;;;;;;;;;;4980574;28;20022;-78
2021/07/30 05:03:37;;;;;;;18.33;9.80;;;;;;;;;;4995025;28;20040;-78
2021/07/30 05:06:16;;;;;;;18.25;10.50;;;;;;;;;;4973275;28;20031;-76
2021/07/30 05:08:42;;;;;;;14.55;8.98;;;;;;;;;;4972959;28;20404;-76
2021/07/30 05:11:10;;;;;;;17.15;8.43;;;;;;;;;;4976611;28;20030;-77
2021/07/30 05:13:36;;;;;;;16.10;8.88;;;;;;;;;;4987581;28;20030;-76
2021/07/30 05:16:09;;;;;;;13.52;8.52;;;;;;;;;;4975624;28;20034;-76
2021/07/30 05:18:35;;;;;;;16.83;8.95;;;;;;;;;;4988604;28;20118;-77
2021/07/30 05:21:09;;;;;;;21.05;8.98;;;;;;;;;;4992930;28;20112;-77
2021/07/30 05:23:35;;;;;;;17.23;9.13;;;;;;;;;;4972778;28;20227;-77
2021/07/30 05:26:01;;;;;;;16.55;9.13;;;;;;;;;;4998534;28;20038;-77
2021/07/30 05:28:28;;;;;;;18.33;10.38;;;;;;;;;;4995725;28;20045;-77
2021/07/30 05:30:55;;;;;;;16.98;9.70;;;;;;;;;;4992258;28;20030;-76
2021/07/30 05:33:20;;;;;;;18.80;11.32;;;;;;;;;;4996649;28;20034;-77
2021/07/30 05:35:46;;;;;;;23.67;10.77;;;;;;;;;;4986937;28;20061;-76
2021/07/30 05:38:12;;;;;;;16.42;10.30;;;;;;;;;;4985865;28;20982;-77
2021/07/30 05:40:37;;;;;;;17.50;10.13;;;;;;;;;;4970476;28;20037;-77
2021/07/30 05:43:03;;;;;;;19.65;10.15;;;;;;;;;;4990415;28;20058;-77
2021/07/30 05:45:28;;;;;;;20.80;10.40;;;;;;;;;;4987788;28;20496;-77
2021/07/30 05:47:54;;;;;;;23.20;11.38;;;;;;;;;;4990257;28;20042;-77
2021/07/30 05:50:19;;;;;;;20.73;11.85;;;;;;;;;;4983546;28;20061;-77
2021/07/30 05:52:45;;;;;;;24.27;12.40;;;;;;;;;;4979792;28;20036;-77
2021/07/30 05:55:10;;;;;;;28.92;11.88;;;;;;;;;;5005023;28;20041;-78
2021/07/30 05:57:36;;;;;;;27.30;11.00;;;;;;;;;;4985144;28;20035;-77
2021/07/30 06:00:04;;;;;;;22.88;10.73;;;;;;;;;;4990854;28;20042;-78
2021/07/30 06:02:29;;;;;;;28.20;11.23;;;;;;;;;;4991525;28;20486;-78
2021/07/30 06:04:54;;;;;;;24.10;11.32;;;;;;;;;;4963736;28;20121;-77
2021/07/30 06:07:20;;;;;;;20.73;11.10;;;;;;;;;;4988896;28;20493;-77
2021/07/30 06:09:45;;;;;;;26.17;10.80;;;;;;;;;;4989051;28;20402;-77
2021/07/30 06:12:11;;;;;;;24.55;10.45;;;;;;;;;;4986938;28;20117;-78
2021/07/30 06:14:36;;;;;;;28.75;11.15;;;;;;;;;;4998650;28;20030;-79
2021/07/30 06:17:02;;;;;;;26.80;11.73;;;;;;;;;;4991099;28;20443;-78
2021/07/30 06:19:27;;;;;;;21.75;10.68;;;;;;;;;;4984996;28;20026;-78
2021/07/30 06:21:53;;;;;;;23.30;10.52;;;;;;;;;;4990568;28;20077;-78
2021/07/30 06:24:18;;;;;;;24.83;11.07;;;;;;;;;;4984683;28;20084;-78
2021/07/30 06:26:44;;;;;;;28.40;11.38;;;;;;;;;;4987081;28;20054;-77
2021/07/30 06:29:09;;;;;;;20.67;10.90;;;;;;;;;;4965231;28;20497;-77
2021/07/30 06:31:35;;;;;;;22.45;11.68;;;;;;;;;;4993172;28;20409;-78
2021/07/30 06:34:00;;;;;;;24.38;11.15;;;;;;;;;;4987006;28;20045;-79
2021/07/30 06:36:26;;;;;;;29.08;11.60;;;;;;;;;;4990196;28;20669;-78
2021/07/30 06:38:51;;;;;;;23.58;10.27;;;;;;;;;;4992517;28;20049;-78
2021/07/30 06:41:17;;;;;;;22.90;9.98;;;;;;;;;;4956546;28;20085;-78
2021/07/30 06:43:43;;;;;;;28.83;11.02;;;;;;;;;;4986518;28;20505;-79
2021/07/30 06:46:09;;;;;;;21.23;9.98;;;;;;;;;;4980215;28;20485;-78
2021/07/30 06:48:34;;;;;;;27.42;11.00;;;;;;;;;;4981250;28;20472;-78
2021/07/30 06:51:00;;;;;;;28.75;10.23;;;;;;;;;;4981739;28;20034;-78
2021/07/30 06:53:25;;;;;;;22.13;9.40;;;;;;;;;;4988140;28;20030;-79
2021/07/30 06:55:51;;;;;;;22.38;10.15;;;;;;;;;;4989390;28;20400;-77
2021/07/30 06:58:16;;;;;;;21.08;10.40;;;;;;;;;;4991839;28;20030;-78
2021/07/30 07:00:42;;;;;;;25.98;11.88;;;;;;;;;;4990671;28;20572;-78
2021/07/30 07:03:07;;;;;;;34.83;10.98;;;;;;;;;;4952219;28;20093;-78
2021/07/30 07:05:36;;;;;;;37.97;11.48;;;;;;;;;;4998756;28;20042;-79
2021/07/30 07:08:02;;;;;;;25.63;11.38;;;;;;;;;;4991702;28;20042;-79
2021/07/30 07:10:27;;;;;;;23.45;9.82;;;;;;;;;;4995358;28;20047;-79
2021/07/30 07:12:53;;;;;;;20.20;10.73;;;;;;;;;;4982289;28;20263;-78
2021/07/30 07:15:18;;;;;;;23.42;10.40;;;;;;;;;;4997053;28;20033;-79
2021/07/30 07:17:43;;;;;;;26.50;10.93;;;;;;;;;;4986315;28;20421;-79
2021/07/30 07:20:10;;;;;;;28.92;11.35;;;;;;;;;;4992083;28;20093;-79
2021/07/30 07:22:35;;;;;;;20.80;9.82;;;;;;;;;;4998272;28;20072;-78
2021/07/30 07:25:02;;;;;;;21.13;9.27;;;;;;;;;;4998123;28;20034;-78
2021/07/30 07:27:28;;;;;;;27.40;10.25;;;;;;;;;;4994697;28;20652;-78
2021/07/30 07:29:53;;;;;;;21.33;9.52;;;;;;;;;;4997899;28;20092;-79
2021/07/30 07:32:18;;;;;;;14.75;7.93;;;;;;;;;;4966820;28;20029;-79
2021/07/30 07:34:44;;;;;;;17.30;7.53;;;;;;;;;;4998714;28;20041;-79
2021/07/30 07:37:09;;;;;;;23.17;7.90;;;;;;;;;;5000364;28;20049;-78
2021/07/30 07:39:35;;;;;;;15.93;7.53;;;;;;;;;;4996514;28;20356;-77
2021/07/30 07:42:01;;;;;;;16.15;7.53;;;;;;;;;;4984739;28;20565;-78
2021/07/30 07:44:26;;;;;;;16.27;7.45;;;;;;;;;;4963047;28;20039;-78
2021/07/30 07:46:52;;;;;;;13.60;7.18;;;;;;;;;;4998588;28;20038;-78
2021/07/30 07:49:18;;;;;;;11.50;6.88;;;;;;;;;;4985165;28;20030;-78
2021/07/30 07:51:43;;;;;;;15.98;7.38;;;;;;;;;;5002036;28;20034;-78
2021/07/30 07:54:09;;;;;;;12.77;6.55;;;;;;;;;;5003731;28;20034;-78
2021/07/30 07:56:34;;;;;;;15.73;7.05;;;;;;;;;;4999127;28;20109;-78
2021/07/30 07:59:01;;;;;;;13.57;6.30;;;;;;;;;;4999750;28;20390;-79
2021/07/30 08:01:26;;;;;;;12.00;6.38;;;;;;;;;;4982096;28;20502;-79
2021/07/30 08:03:52;;;;;;;27.30;6.70;;;;;;;;;;4989452;28;20092;-78
2021/07/30 08:06:22;;;;;;;14.00;6.13;;;;;;;;;;5002892;28;20113;-78
2021/07/30 08:08:49;;;;;;;10.55;5.00;;;;;;;;;;4995552;28;20022;-79
2021/07/30 08:11:15;;;;;;;10.32;4.38;;;;;;;;;;4975923;28;20038;-79
2021/07/30 08:13:41;;;;;;;10.93;4.60;;;;;;;;;;4986984;28;20574;-79
2021/07/30 08:16:08;;;;;;;8.50;4.53;;;;;;;;;;4998916;28;20038;-78
2021/07/30 08:18:34;;;;;;;10.93;3.58;;;;;;;;;;5000411;28;20106;-79
2021/07/30 08:21:00;;;;;;;8.77;3.55;;;;;;;;;;4998649;28;20636;-79
2021/07/30 08:23:27;;;;;;;8.00;4.38;;;;;;;;;;4964931;28;20041;-79
2021/07/30 08:25:53;;;;;;;12.05;4.47;;;;;;;;;;5001845;28;20055;-78
2021/07/30 08:28:19;;;;;;;14.32;5.55;;;;;;;;;;4978317;28;20030;-78
2021/07/30 08:30:44;;;;;;;12.52;5.80;;;;;;;;;;4973829;28;20030;-78
2021/07/30 08:33:10;;;;;;;9.85;5.35;;;;;;;;;;4990440;28;20057;-78
2021/07/30 08:35:35;;;;;;;11.80;6.38;;;;;;;;;;4972774;28;20042;-78
2021/07/30 08:38:01;;;;;;;17.08;6.55;;;;;;;;;;4978453;28;20700;-79
2021/07/30 08:40:33;;;;;;;15.48;7.15;;;;;;;;;;4988757;28;20040;-79
2021/07/30 08:43:00;;;;;;;13.75;6.75;;;;;;;;;;4991327;28;20081;-78
2021/07/30 08:45:25;;;;;;;15.02;7.50;;;;;;;;;;5011637;28;20076;-79
2021/07/30 08:47:51;;;;;;;18.13;7.82;;;;;;;;;;4996650;28;20513;-78
2021/07/30 08:50:17;;;;;;;13.32;7.30;;;;;;;;;;4991406;28;20071;-79
2021/07/30 08:52:44;;;;;;;14.90;7.60;;;;;;;;;;4980216;28;20103;-79
2021/07/30 08:55:15;;;;;;;16.92;8.05;;;;;;;;;;4992195;28;20061;-79
2021/07/30 08:57:42;;;;;;;15.52;7.25;;;;;;;;;;4975464;28;20037;-78
2021/07/30 09:00:18;;;;;;;21.48;7.97;;;;;;;;;;4991308;28;20049;-79
2021/07/30 09:02:44;;;;;;;14.73;7.13;;;;;;;;;;4971639;28;20030;-79
2021/07/30 09:05:26;;;;;;;15.45;7.05;;;;;;;;;;4994142;28;20023;-79
2021/07/30 09:07:51;;;;;;;17.92;7.30;;;;;;;;;;4987114;28;20069;-78
2021/07/30 09:10:30;;;;;;;16.85;7.20;;;;;;;;;;4983169;28;20088;-78
2021/07/30 09:13:16;;;;;;;12.45;6.55;;;;;;;;;;4988722;28;20077;-84
2021/07/30 09:15:43;;;;;;;13.68;6.18;;;;;;;;;;4985362;28;20065;-84
2021/07/30 09:18:27;;;;;;;16.10;6.43;;;;;;;;;;4992295;28;20034;-84
2021/07/30 09:20:53;;;;;;;13.07;6.28;;;;;;;;;;4989696;28;20030;-85
2021/07/30 09:23:18;;;;;;;14.02;5.95;;;;;;;;;;4987279;28;20448;-84
2021/07/30 09:25:44;;;;;;;15.07;5.50;;;;;;;;;;4980056;28;20039;-83
2021/07/30 09:28:09;;;;;;;14.30;6.43;;;;;;;;;;4987388;28;20065;-83
2021/07/30 09:30:35;;;;;;;13.30;5.68;;;;;;;;;;4987703;28;20030;-83
2021/07/30 09:33:01;;;;;;;13.55;5.85;;;;;;;;;;4988715;28;20050;-83
2021/07/30 09:35:27;;;;;;;10.00;5.32;;;;;;;;;;4991015;28;20169;-83
2021/07/30 09:38:15;;;;;;;11.63;5.47;;;;;;;;;;4988333;28;20545;-84
2021/07/30 09:40:41;;;;;;;10.85;6.07;;;;;;;;;;4989933;28;20040;-83
2021/07/30 09:43:26;;;;;;;10.93;5.00;;;;;;;;;;4993307;28;20047;-79
2021/07/30 09:46:12;;;;;;;9.02;4.85;;;;;;;;;;4986614;28;20089;-79
2021/07/30 09:48:52;;;;;;;12.05;5.53;;;;;;;;;;4989039;28;20100;-78
2021/07/30 09:51:18;;;;;;;11.48;4.93;;;;;;;;;;4987522;28;20580;-78
2021/07/30 09:53:45;;;;;;;11.77;5.13;;;;;;;;;;4970090;28;20038;-79
2021/07/30 09:56:13;;;;;;;10.50;4.45;;;;;;;;;;4989395;28;20034;-79
2021/07/30 09:58:40;;;;;;;8.32;4.63;;;;;;;;;;4991594;28;20174;-78
2021/07/30 10:01:06;;;;;;;8.57;4.57;;;;;;;;;;4993359;28;20030;-78
2021/07/30 10:03:35;;;;;;;10.20;4.65;;;;;;;;;;4966720;28;20065;-78
2021/07/30 10:06:02;;;;;;;11.38;4.05;;;;;;;;;;4980376;28;20089;-79
2021/07/30 10:08:28;;;;;;;11.32;4.13;;;;;;;;;;4989742;28;20038;-78
2021/07/30 10:10:54;;;;;;;13.55;4.45;;;;;;;;;;4988215;28;20038;-79
2021/07/30 10:13:25;;;;;;;9.82;4.18;;;;;;;;;;4988560;28;20062;-79
2021/07/30 10:15:51;;;;;;;8.98;3.95;;;;;;;;;;4983332;28;20121;-79
2021/07/30 10:18:19;;;;;;;7.60;3.72;;;;;;;;;;4985577;28;20082;-78
2021/07/30 10:20:46;;;;;;;9.82;4.20;;;;;;;;;;4987786;28;20035;-79
2021/07/30 10:23:15;;;;;;;9.27;4.10;;;;;;;;;;4972130;28;20034;-78
2021/07/30 10:26:00;;;;;;;10.98;4.65;;;;;;;;;;4987863;28;20060;-79
2021/07/30 10:28:29;;;;;;;14.15;4.28;;;;;;;;;;4958025;28;20045;-79
2021/07/30 10:30:58;;;;;;;8.55;3.78;;;;;;;;;;4971424;28;20042;-79
2021/07/30 10:33:40;;;;;;;9.63;4.85;;;;;;;;;;5001202;28;20124;-79
2021/07/30 10:36:31;;;;;;;8.27;4.13;;;;;;;;;;4990884;28;20441;-79
2021/07/30 10:39:18;;;;;;;8.48;3.80;;;;;;;;;;4971942;28;20039;-78
2021/07/30 10:42:10;;;;;;;9.45;4.00;;;;;;;;;;4975070;28;20757;-78
2021/07/30 10:44:56;;;;;;;6.40;3.50;;;;;;;;;;4990419;28;20042;-78
2021/07/30 10:47:21;;;;;;;16.92;4.60;;;;;;;;;;4985227;28;20038;-78
2021/07/30 10:49:47;;;;;;;13.20;4.30;;;;;;;;;;4950485;28;20035;-78
2021/07/30 10:52:27;;;;;;;14.77;4.20;;;;;;;;;;4971813;28;20046;-79
2021/07/30 10:54:53;;;;;;;10.52;3.92;;;;;;;;;;5006051;28;20041;-79
2021/07/30 10:57:50;;;;;;;6.78;3.78;;;;;;;;;;4989440;28;20109;-79
2021/07/30 11:00:16;;;;;;;11.63;4.40;;;;;;;;;;4989646;28;20037;-79
2021/07/30 11:03:04;;;;;;;9.82;3.83;;;;;;;;;;4995127;28;20658;-79
2021/07/30 11:05:30;;;;;;;8.45;3.95;;;;;;;;;;4989204;28;20026;-78
2021/07/30 11:08:02;;;;;;;7.85;3.90;;;;;;;;;;4994043;28;20524;-79
2021/07/30 11:10:28;;;;;;;10.60;3.65;;;;;;;;;;4964769;28;20491;-79
2021/07/30 11:12:55;;;;;;;7.82;3.65;;;;;;;;;;4992745;28;20041;-79
2021/07/30 11:15:21;;;;;;;9.50;3.20;;;;;;;;;;4984878;28;20041;-79
2021/07/30 11:17:50;;;;;;;8.40;3.38;;;;;;;;;;4987715;28;20405;-79
2021/07/30 11:20:15;;;;;;;6.55;2.75;;;;;;;;;;4967809;28;20038;-79
2021/07/30 11:22:41;;;;;;;7.80;3.50;;;;;;;;;;4989431;28;20787;-78
2021/07/30 11:25:12;;;;;;;6.40;3.88;;;;;;;;;;4970707;28;20138;-79
2021/07/30 11:27:38;;;;;;;10.80;3.45;;;;;;;;;;4992279;28;21595;-79
2021/07/30 11:30:05;;;;;;;11.30;4.57;;;;;;;;;;4964892;28;20049;-78
2021/07/30 11:32:32;;;;;;;5.50;3.13;;;;;;;;;;4967977;28;20041;-78
2021/07/30 11:35:08;;;;;;;6.25;2.83;;;;;;;;;;4995475;28;20030;-79
2021/07/30 11:37:34;;;;;;;5.40;2.53;;;;;;;;;;4989663;28;20046;-78
2021/07/30 11:40:01;;;;;;;5.57;3.03;;;;;;;;;;4996244;28;20034;-79
2021/07/30 11:42:34;;;;;;;5.47;2.58;;;;;;;;;;4974584;28;20067;-79
2021/07/30 11:45:04;;;;;;;4.50;2.75;;;;;;;;;;4990289;28;20033;-79
2021/07/30 11:47:32;;;;;;;10.25;3.33;;;;;;;;;;4988190;28;20110;-79
2021/07/30 11:50:05;;;;;;;6.72;3.17;;;;;;;;;;5005008;28;20038;-78
2021/07/30 11:52:31;;;;;;;9.98;3.05;;;;;;;;;;4995203;28;20027;-79
2021/07/30 11:55:16;;;;;;;6.68;3.40;;;;;;;;;;4988683;28;20578;-78
2021/07/30 11:57:46;;;;;;;5.07;2.92;;;;;;;;;;4981746;28;20034;-78
2021/07/30 12:00:29;;;;;;;6.57;2.92;;;;;;;;;;4983125;28;20037;-78
2021/07/30 12:02:55;;;;;;;5.30;3.47;;;;;;;;;;4988142;28;20038;-79
2021/07/30 12:05:36;;;;;;;4.95;3.10;;;;;;;;;;4992058;28;20037;-78
2021/07/30 12:08:02;;;;;;;7.75;3.15;;;;;;;;;;4991041;28;20471;-78
2021/07/30 12:10:28;;;;;;;5.45;2.97;;;;;;;;;;4988692;28;20039;-78
2021/07/30 12:12:57;;;;;;;6.53;3.20;;;;;;;;;;4983573;28;20037;-78
2021/07/30 12:15:25;;;;;;;4.93;3.33;;;;;;;;;;5003695;28;20022;-78
2021/07/30 12:17:57;;;;;;;4.75;2.95;;;;;;;;;;4985237;28;20119;-77
2021/07/30 12:20:38;;;;;;;5.18;2.90;;;;;;;;;;4992305;28;20022;-77
2021/07/30 12:23:07;;;;;;;6.78;3.50;;;;;;;;;;4992568;28;20034;-78
2021/07/30 12:25:48;;;;;;;8.35;4.85;;;;;;;;;;4985622;28;20350;-78
2021/07/30 12:28:16;;;;;;;10.83;5.63;;;;;;;;;;4969162;28;20493;-78
2021/07/30 12:30:45;;;;;;;12.73;5.13;;;;;;;;;;4988300;28;20022;-78
2021/07/30 12:33:40;;;;;;;8.05;4.60;;;;;;;;;;4986942;28;20037;-79
2021/07/30 12:36:10;;;;;;;9.85;4.35;;;;;;;;;;4977269;28;20038;-79
2021/07/30 12:39:01;;;;;;;6.47;4.03;;;;;;;;;;4987399;28;20037;-78
2021/07/30 12:41:30;;;;;;;6.03;3.97;;;;;;;;;;4990274;28;20040;-79
2021/07/30 12:44:07;;;;;;;11.32;4.72;;;;;;;;;;4993772;28;20038;-78
2021/07/30 12:46:57;;;;;;;9.45;4.20;;;;;;;;;;5002734;28;20042;-78
2021/07/30 12:49:33;;;;;;;9.25;4.68;;;;;;;;;;4980517;28;20116;-78
2021/07/30 12:51:59;;;;;;;8.38;4.20;;;;;;;;;;5004142;28;20026;-78
2021/07/30 12:54:35;;;;;;;8.05;4.07;;;;;;;;;;4980511;28;20100;-77
2021/07/30 12:57:01;;;;;;;8.63;4.50;;;;;;;;;;4999009;28;20080;-78
2021/07/30 12:59:52;;;;;;;13.48;4.60;;;;;;;;;;4994760;28;20018;-78
2021/07/30 13:02:27;;;;;;;12.30;4.65;;;;;;;;;;5004019;28;20509;-78
2021/07/30 13:04:54;;;;;;;8.00;3.55;;;;;;;;;;4996232;28;20042;-78
2021/07/30 13:07:21;;;;;;;7.97;3.42;;;;;;;;;;4999104;28;20029;-78
2021/07/30 13:09:47;;;;;;;4.82;3.33;;;;;;;;;;4976751;28;20035;-78
2021/07/30 13:12:13;;;;;;;5.20;3.42;;;;;;;;;;4994378;28;20092;-78
2021/07/30 13:14:38;;;;;;;7.88;3.35;;;;;;;;;;4997048;28;20022;-79
2021/07/30 13:17:04;;;;;;;6.68;2.80;;;;;;;;;;4987505;28;20413;-78
2021/07/30 13:19:30;;;;;;;6.05;3.22;;;;;;;;;;4998565;28;20771;-78
2021/07/30 13:21:55;;;;;;;7.18;3.70;;;;;;;;;;4993222;28;20030;-78
2021/07/30 13:24:22;;;;;;;11.93;4.25;;;;;;;;;;4985342;28;20034;-84
2021/07/30 13:26:48;;;;;;;9.85;4.07;;;;;;;;;;4997029;28;20022;-86
2021/07/30 13:29:14;;;;;;;10.85;4.57;;;;;;;;;;4997804;28;20484;-86
2021/07/30 13:31:40;;;;;;;7.40;3.72;;;;;;;;;;4998699;28;20022;-84
2021/07/30 13:34:05;;;;;;;6.45;3.28;;;;;;;;;;4994115;28;20084;-84
2021/07/30 13:36:31;;;;;;;4.20;2.45;;;;;;;;;;4974234;28;20117;-84
2021/07/30 13:38:57;;;;;;;6.65;2.70;;;;;;;;;;5012778;28;20076;-84
2021/07/30 13:41:22;;;;;;;5.68;2.40;;;;;;;;;;4995300;28;20029;-83
2021/07/30 13:43:48;;;;;;;4.55;2.20;;;;;;;;;;4985253;28;20501;-85
2021/07/30 13:46:13;;;;;;;9.27;2.40;;;;;;;;;;4979489;28;20034;-82
2021/07/30 13:48:39;;;;;;;6.18;2.45;;;;;;;;;;4994496;28;20037;-84
2021/07/30 13:51:05;;;;;;;4.65;3.28;;;;;;;;;;4990126;28;20026;-83
2021/07/30 13:53:31;;;;;;;6.00;3.08;;;;;;;;;;4959451;28;20030;-84
2021/07/30 13:55:57;;;;;;;6.28;2.67;;;;;;;;;;4996769;28;20045;-84
2021/07/30 13:58:23;;;;;;;3.60;2.45;;;;;;;;;;4998102;28;20026;-84
2021/07/30 14:00:49;;;;;;;5.32;2.80;;;;;;;;;;4992686;28;20030;-83
2021/07/30 14:03:15;;;;;;;5.45;3.28;;;;;;;;;;4983182;28;20076;-84
2021/07/30 14:05:44;;;;;;;7.03;2.40;;;;;;;;;;4997150;28;20038;-83
2021/07/30 14:08:11;;;;;;;6.70;2.40;;;;;;;;;;5003630;28;20092;-83
2021/07/30 14:10:36;;;;;;;4.05;2.30;;;;;;;;;;4978071;28;20535;-85
2021/07/30 14:13:02;;;;;;;6.45;2.00;;;;;;;;;;4979526;28;20030;-84
2021/07/30 14:15:30;;;;;;;3.13;2.13;;;;;;;;;;4981239;28;20152;-83
2021/07/30 14:17:56;;;;;;;3.45;1.80;;;;;;;;;;5000739;28;20547;-83
2021/07/30 14:20:21;;;;;;;3.83;1.80;;;;;;;;;;4997767;28;20030;-83
2021/07/30 14:22:47;;;;;;;3.65;1.77;;;;;;;;;;5003882;28;20026;-82
2021/07/30 14:25:12;;;;;;;3.15;2.00;;;;;;;;;;4995473;28;20030;-83
2021/07/30 14:27:38;;;;;;;2.92;2.00;;;;;;;;;;4981437;28;20480;-83
2021/07/30 14:30:05;;;;;;;3.95;2.38;;;;;;;;;;4993409;28;20034;-84
2021/07/30 14:32:31;;;;;;;3.90;2.45;;;;;;;;;;4999785;28;20029;-86
2021/07/30 14:34:56;;;;;;;9.63;3.20;;;;;;;;;;4993407;28;20034;-87
2021/07/30 14:37:22;;;;;;;8.52;3.90;;;;;;;;;;4983063;28;20121;-87
2021/07/30 14:39:47;;;;;;;6.07;3.80;;;;;;;;;;4959328;28;20129;-84